Time;durP1;ratioP1;P1;durP2;ratioP2;P2;SDS_P1;SDS_P2;PMS_P1;PMS_P2;Temp;Humidity;BMP_temperature;BMP_pressure;BME280_temperature;BME280_humidity;BME280_pressure;Samples;Min_cycle;Max_cycle;Signal;HPM_P1;HPM_P2
2023/08/09 00:02:25;;;;;;;5.50;1.40;;;;;;;15.04;65.00;101111.19;7394358;19;20010;-63
2023/08/09 00:04:52;;;;;;;9.32;1.60;;;;;;;15.01;64.94;101108.78;7396237;19;20374;-62
2023/08/09 00:07:20;;;;;;;3.97;1.27;;;;;;;15.09;64.79;101111.63;7394248;19;20019;-63
2023/08/09 00:09:47;;;;;;;7.00;1.60;;;;;;;15.01;65.12;101100.78;7395714;19;20089;-63
2023/08/09 00:12:14;;;;;;;8.88;1.60;;;;;;;14.88;65.66;101111.66;7395296;19;20023;-63
2023/08/09 00:14:42;;;;;;;5.53;1.58;;;;;;;14.90;65.59;101104.38;7395460;19;20082;-63
2023/08/09 00:17:09;;;;;;;8.02;1.63;;;;;;;14.97;65.60;101102.03;7396467;19;20014;-63
2023/08/09 00:19:37;;;;;;;5.22;1.40;;;;;;;14.95;65.81;101101.31;7393542;19;20666;-63
2023/08/09 00:22:04;;;;;;;6.55;1.60;;;;;;;14.94;66.02;101099.63;7396053;19;20423;-62
2023/08/09 00:24:32;;;;;;;6.07;1.60;;;;;;;14.85;66.25;101102.13;7394819;19;20018;-63
2023/08/09 00:27:00;;;;;;;5.20;1.60;;;;;;;14.89;66.72;101110.69;7394514;19;20014;-62
2023/08/09 00:29:28;;;;;;;5.55;1.52;;;;;;;14.87;66.90;101104.63;7391452;19;20018;-62
2023/08/09 00:31:56;;;;;;;6.65;1.60;;;;;;;14.89;67.07;101100.03;7392896;19;20084;-62
2023/08/09 00:34:23;;;;;;;6.07;1.50;;;;;;;14.83;67.44;101101.38;7395004;19;20035;-62
2023/08/09 00:36:51;;;;;;;6.70;1.52;;;;;;;14.79;67.84;101101.78;7392273;19;20035;-62
2023/08/09 00:39:18;;;;;;;4.25;1.63;;;;;;;14.81;67.84;101098.03;7392995;19;20480;-63
2023/08/09 00:41:46;;;;;;;6.43;1.90;;;;;;;14.70;68.65;101105.25;7393371;19;20224;-62
2023/08/09 00:44:13;;;;;;;6.28;1.40;;;;;;;14.78;68.37;101108.09;7394669;19;20031;-64
2023/08/09 00:46:40;;;;;;;4.78;1.42;;;;;;;14.78;68.54;101100.09;7394194;19;20094;-64
2023/08/09 00:49:09;;;;;;;6.10;1.85;;;;;;;14.78;68.71;101108.94;7392217;19;20017;-63
2023/08/09 00:51:37;;;;;;;5.88;1.42;;;;;;;14.72;69.19;101106.78;7394123;19;20095;-63
2023/08/09 00:54:04;;;;;;;4.47;1.50;;;;;;;14.74;69.55;101104.84;7393844;19;20035;-63
2023/08/09 00:56:32;;;;;;;11.05;1.83;;;;;;;14.75;69.48;101113.69;7389551;19;20093;-62
2023/08/09 00:59:01;;;;;;;5.00;1.50;;;;;;;14.70;69.92;101119.44;7391517;19;20018;-63
2023/08/09 01:01:28;;;;;;;5.85;1.98;;;;;;;14.80;69.64;101120.31;7394752;19;20049;-63
2023/08/09 01:03:56;;;;;;;4.63;1.50;;;;;;;14.67;70.24;101118.84;7392015;19;20521;-64
2023/08/09 01:06:33;;;;;;;5.65;1.50;;;;;;;14.65;70.34;101113.63;7392655;19;20036;-60
2023/08/09 01:09:34;;;;;;;3.80;1.35;;;;;;;14.73;70.63;101118.31;7394056;19;20021;-60
2023/08/09 01:12:16;;;;;;;6.65;1.38;;;;;;;14.67;70.94;101116.19;7394008;19;20026;-59
2023/08/09 01:14:47;;;;;;;7.35;1.90;;;;;;;14.67;71.01;101122.34;7394142;19;20355;-60
2023/08/09 01:17:15;;;;;;;3.25;1.40;;;;;;;14.68;70.73;101116.03;7392341;19;20074;-61
2023/08/09 01:19:49;;;;;;;5.90;1.60;;;;;;;14.78;70.58;101122.28;7392100;19;20039;-60
2023/08/09 01:22:22;;;;;;;5.00;1.67;;;;;;;14.81;70.54;101122.03;7392708;19;20011;-61
2023/08/09 01:24:50;;;;;;;3.83;1.73;;;;;;;14.76;70.90;101120.72;7393749;19;20019;-62
2023/08/09 01:27:17;;;;;;;7.07;1.95;;;;;;;14.65;71.38;101118.94;7391002;19;20090;-63
2023/08/09 01:29:45;;;;;;;8.98;2.22;;;;;;;14.72;71.35;101125.44;7393327;19;20014;-63
2023/08/09 01:32:12;;;;;;;6.50;2.08;;;;;;;14.75;71.37;101127.03;7392446;19;20488;-61
2023/08/09 01:34:40;;;;;;;5.03;1.80;;;;;;;14.74;71.48;101130.69;7392918;19;20085;-63
2023/08/09 01:37:19;;;;;;;6.47;2.00;;;;;;;14.75;71.57;101130.53;7390299;19;20027;-62
2023/08/09 01:39:50;;;;;;;5.63;2.08;;;;;;;14.71;71.89;101130.94;7390959;19;20022;-61
2023/08/09 01:42:18;;;;;;;4.55;1.52;;;;;;;14.77;71.83;101133.94;7391168;19;20492;-62
2023/08/09 01:44:46;;;;;;;6.03;1.80;;;;;;;14.74;72.01;101131.50;7393106;19;20022;-67
2023/08/09 01:47:14;;;;;;;7.32;2.13;;;;;;;14.81;71.73;101135.34;7389989;19;20786;-65
2023/08/09 01:49:47;;;;;;;5.40;2.15;;;;;;;14.82;71.89;101134.38;7392666;19;20010;-72
2023/08/09 01:52:15;;;;;;;6.45;2.22;;;;;;;14.79;72.22;101128.44;7392271;19;20085;-62
2023/08/09 01:54:43;;;;;;;6.40;2.03;;;;;;;14.82;72.08;101126.38;7390428;19;20039;-63
2023/08/09 01:57:11;;;;;;;11.93;2.70;;;;;;;14.82;72.37;101129.03;7390241;19;20031;-63
2023/08/09 01:59:39;;;;;;;6.28;2.10;;;;;;;14.85;72.51;101139.44;7390609;19;20387;-62
2023/08/09 02:02:06;;;;;;;5.97;2.40;;;;;;;14.91;72.52;101137.22;7392065;19;20034;-63
2023/08/09 02:04:33;;;;;;;6.30;2.58;;;;;;;14.93;72.50;101145.94;7389995;19;20392;-61
2023/08/09 02:07:01;;;;;;;5.47;2.15;;;;;;;14.83;73.13;101137.88;7389884;19;20018;-60
2023/08/09 02:09:30;;;;;;;7.55;2.85;;;;;;;14.77;73.52;101141.94;7390796;19;20018;-64
2023/08/09 02:11:57;;;;;;;7.13;2.70;;;;;;;14.80;73.49;101144.31;7392251;19;20074;-60
2023/08/09 02:14:24;;;;;;;7.55;3.47;;;;;;;14.74;73.62;101139.50;7389679;19;20086;-61
2023/08/09 02:16:52;;;;;;;7.45;3.05;;;;;;;14.68;73.90;101142.69;7387962;19;20018;-61
2023/08/09 02:19:20;;;;;;;6.97;2.60;;;;;;;14.66;74.26;101141.16;7389832;19;20029;-64
2023/08/09 02:21:47;;;;;;;6.78;3.08;;;;;;;14.65;74.38;101145.59;7391919;19;20028;-64
2023/08/09 02:24:15;;;;;;;8.20;2.90;;;;;;;14.71;74.07;101142.44;7390976;19;20025;-64
2023/08/09 02:26:42;;;;;;;8.43;3.20;;;;;;;14.67;74.46;101140.16;7389511;19;20018;-62
2023/08/09 02:29:10;;;;;;;7.80;3.40;;;;;;;14.69;74.46;101146.19;7390068;19;20010;-62
2023/08/09 02:31:38;;;;;;;8.05;3.35;;;;;;;14.60;74.43;101142.50;7389357;19;20082;-63
2023/08/09 02:34:05;;;;;;;8.02;3.65;;;;;;;14.66;74.52;101149.16;7391638;19;20044;-64
2023/08/09 02:36:33;;;;;;;6.95;2.90;;;;;;;14.66;74.39;101154.47;7389340;19;20060;-64
2023/08/09 02:39:00;;;;;;;7.80;3.30;;;;;;;14.69;74.24;101146.19;7389063;19;20019;-60
2023/08/09 02:41:28;;;;;;;6.75;3.20;;;;;;;14.70;74.04;101150.56;7391372;19;20023;-61
2023/08/09 02:43:56;;;;;;;7.75;2.83;;;;;;;14.71;73.96;101149.59;7390684;19;20018;-62
2023/08/09 02:46:23;;;;;;;8.38;2.90;;;;;;;14.72;73.80;101148.59;7387348;19;20018;-61
2023/08/09 02:48:50;;;;;;;7.22;3.13;;;;;;;14.70;74.03;101162.09;7391114;19;20014;-62
2023/08/09 02:51:18;;;;;;;6.07;2.60;;;;;;;14.76;73.73;101160.69;7390989;19;20032;-62
2023/08/09 02:54:05;;;;;;;11.48;3.65;;;;;;;14.78;73.65;101162.28;7390735;19;20907;-62
2023/08/09 02:56:33;;;;;;;8.45;3.10;;;;;;;14.70;73.80;101162.09;7389195;19;20093;-61
2023/08/09 02:59:00;;;;;;;7.35;3.28;;;;;;;14.70;73.89;101166.56;7389429;19;20525;-60
2023/08/09 03:01:29;;;;;;;9.18;3.40;;;;;;;14.69;74.04;101164.84;7390501;19;20361;-62
2023/08/09 03:03:56;;;;;;;8.18;3.17;;;;;;;14.65;74.13;101168.75;7388892;19;20018;-62
2023/08/09 03:06:24;;;;;;;6.85;2.92;;;;;;;14.57;74.63;101161.41;7395737;19;20033;-62
2023/08/09 03:08:52;;;;;;;5.70;3.05;;;;;;;14.62;74.13;101172.53;7397912;19;20026;-60
2023/08/09 03:11:24;;;;;;;7.25;2.92;;;;;;;14.60;74.24;101180.66;7398215;19;20040;-60
2023/08/09 03:13:52;;;;;;;8.23;3.33;;;;;;;14.52;74.62;101172.47;7398000;19;20014;-61
2023/08/09 03:16:20;;;;;;;7.60;3.17;;;;;;;14.55;74.39;101182.03;7393478;19;20101;-61
2023/08/09 03:18:48;;;;;;;6.88;2.70;;;;;;;14.47;74.82;101182.63;7397195;19;20015;-60
2023/08/09 03:21:16;;;;;;;13.52;4.00;;;;;;;14.37;75.13;101179.88;7397562;19;20127;-61
2023/08/09 03:23:43;;;;;;;5.82;3.17;;;;;;;14.45;74.62;101181.91;7397532;19;20407;-60
2023/08/09 03:26:10;;;;;;;8.85;3.08;;;;;;;14.46;74.71;101185.41;7394713;19;20039;-60
2023/08/09 03:28:38;;;;;;;8.00;3.20;;;;;;;14.51;74.47;101180.59;7397280;19;20011;-60
2023/08/09 03:31:05;;;;;;;10.95;3.60;;;;;;;14.49;74.28;101185.16;7395731;19;20026;-61
2023/08/09 03:33:32;;;;;;;7.38;3.83;;;;;;;14.47;74.53;101187.97;7396886;19;20015;-60
2023/08/09 03:36:00;;;;;;;8.65;3.63;;;;;;;14.44;74.62;101188.22;7395034;19;20010;-61
2023/08/09 03:38:27;;;;;;;9.93;3.60;;;;;;;14.44;74.58;101190.03;7397187;19;20029;-61
2023/08/09 03:40:55;;;;;;;7.32;3.58;;;;;;;14.48;74.52;101184.31;7393934;19;20033;-61
2023/08/09 03:43:22;;;;;;;8.10;3.55;;;;;;;14.47;74.62;101195.13;7396949;19;20123;-60
2023/08/09 03:45:49;;;;;;;9.98;3.85;;;;;;;14.43;74.87;101201.69;7395267;19;20026;-60
2023/08/09 03:48:17;;;;;;;8.65;3.75;;;;;;;14.50;74.51;101194.88;7396620;19;20029;-61
2023/08/09 03:50:45;;;;;;;7.53;3.60;;;;;;;14.39;74.97;101198.41;7396646;19;20015;-62
2023/08/09 03:53:12;;;;;;;8.80;3.78;;;;;;;14.48;74.55;101202.13;7396495;19;20089;-58
2023/08/09 03:55:39;;;;;;;5.20;3.20;;;;;;;14.48;74.54;101207.47;7395631;19;20039;-59
2023/08/09 03:58:07;;;;;;;7.95;3.70;;;;;;;14.53;74.39;101205.28;7395682;19;20014;-59
2023/08/09 04:00:34;;;;;;;8.38;3.78;;;;;;;14.49;74.45;101212.69;7394017;19;20035;-60
2023/08/09 04:03:02;;;;;;;7.93;3.90;;;;;;;14.50;74.69;101221.53;7395999;19;20532;-60
2023/08/09 04:05:30;;;;;;;9.00;3.97;;;;;;;14.52;74.45;101217.78;7394949;19;20029;-60
2023/08/09 04:08:00;;;;;;;8.68;3.85;;;;;;;14.50;74.80;101218.84;7395742;19;20015;-60
2023/08/09 04:10:28;;;;;;;7.88;3.28;;;;;;;14.49;74.70;101220.69;7396409;19;20090;-61
2023/08/09 04:12:56;;;;;;;7.15;3.60;;;;;;;14.54;74.57;101223.00;7395745;19;20021;-60
2023/08/09 04:15:23;;;;;;;8.50;3.55;;;;;;;14.51;74.52;101224.06;7394460;19;20018;-61
2023/08/09 04:17:51;;;;;;;8.85;4.10;;;;;;;14.46;74.63;101226.25;7397651;19;20018;-60
2023/08/09 04:20:19;;;;;;;8.18;3.55;;;;;;;14.57;74.44;101233.38;7394322;19;20019;-61
2023/08/09 04:22:46;;;;;;;8.60;3.63;;;;;;;14.50;74.45;101234.84;7395911;19;20015;-61
2023/08/09 04:25:13;;;;;;;8.13;3.88;;;;;;;14.56;74.27;101239.69;7394482;19;20391;-61
2023/08/09 04:27:41;;;;;;;8.52;3.42;;;;;;;14.53;74.38;101235.44;7394776;19;20029;-61
2023/08/09 04:30:09;;;;;;;7.30;3.30;;;;;;;14.57;74.18;101249.38;7395080;19;20056;-61
2023/08/09 04:32:38;;;;;;;7.78;3.65;;;;;;;14.63;74.24;101246.19;7395237;19;20088;-61
2023/08/09 04:35:09;;;;;;;8.73;3.70;;;;;;;14.62;74.08;101249.84;7394572;19;20098;-61
2023/08/09 04:37:36;;;;;;;8.77;3.70;;;;;;;14.56;74.12;101255.69;7394745;19;20026;-61
2023/08/09 04:40:10;;;;;;;7.65;3.72;;;;;;;14.57;74.01;101254.69;7394058;19;20022;-60
2023/08/09 04:42:42;;;;;;;6.75;3.58;;;;;;;14.54;73.97;101261.16;7395132;19;20026;-59
2023/08/09 04:45:11;;;;;;;7.25;3.55;;;;;;;14.44;74.53;101254.84;7394343;19;20064;-60
2023/08/09 04:47:38;;;;;;;6.40;3.45;;;;;;;14.56;73.90;101266.34;7394252;19;20440;-61
2023/08/09 04:50:07;;;;;;;7.80;3.28;;;;;;;14.59;73.79;101264.28;7394231;19;20090;-61
2023/08/09 04:52:36;;;;;;;6.68;3.55;;;;;;;14.61;73.78;101261.47;7394692;19;20498;-61
2023/08/09 04:55:04;;;;;;;7.85;3.47;;;;;;;14.62;73.73;101257.84;7394012;19;20039;-59
2023/08/09 04:57:31;;;;;;;9.25;3.75;;;;;;;14.55;73.68;101259.31;7393567;19;20101;-61
2023/08/09 05:00:08;;;;;;;8.90;3.65;;;;;;;14.57;73.71;101262.69;7391978;19;20014;-60
2023/08/09 05:02:36;;;;;;;10.45;3.83;;;;;;;14.55;73.86;101264.66;7394198;19;20051;-61
2023/08/09 05:05:06;;;;;;;6.30;3.28;;;;;;;14.58;73.69;101262.59;7394305;19;20375;-62
2023/08/09 05:07:34;;;;;;;8.98;3.55;;;;;;;14.64;73.60;101271.88;7394032;19;20135;-62
2023/08/09 05:10:02;;;;;;;8.27;3.15;;;;;;;14.71;73.10;101270.41;7394146;19;20213;-61
2023/08/09 05:12:30;;;;;;;7.47;3.20;;;;;;;14.64;73.32;101277.22;7394158;19;20018;-62
2023/08/09 05:14:57;;;;;;;6.72;3.22;;;;;;;14.64;73.22;101277.22;7393814;19;20015;-63
2023/08/09 05:17:25;;;;;;;7.43;3.33;;;;;;;14.72;73.10;101281.91;7393963;19;20488;-62
2023/08/09 05:19:52;;;;;;;9.15;2.97;;;;;;;14.76;72.85;101278.00;7392882;19;20014;-61
2023/08/09 05:22:19;;;;;;;8.90;3.58;;;;;;;14.75;73.03;101285.16;7393568;19;20053;-63
2023/08/09 05:24:47;;;;;;;5.50;2.92;;;;;;;14.81;72.83;101281.16;7393811;19;20018;-62
2023/08/09 05:27:14;;;;;;;8.05;3.03;;;;;;;14.81;72.82;101283.84;7391247;19;20023;-63
2023/08/09 05:29:42;;;;;;;5.65;3.03;;;;;;;14.88;72.66;101290.31;7392839;19;20018;-63
2023/08/09 05:32:09;;;;;;;8.50;2.88;;;;;;;14.89;72.71;101291.19;7393238;19;20027;-62
2023/08/09 05:34:36;;;;;;;8.35;3.13;;;;;;;14.95;72.51;101288.00;7392498;19;20018;-63
2023/08/09 05:37:03;;;;;;;8.38;2.90;;;;;;;14.94;72.15;101279.16;7391052;19;20019;-63
2023/08/09 05:39:31;;;;;;;6.93;2.80;;;;;;;14.97;72.16;101288.72;7392270;19;20036;-63
2023/08/09 05:41:59;;;;;;;7.88;2.92;;;;;;;14.95;72.24;101288.00;7391481;19;20078;-62
2023/08/09 05:44:26;;;;;;;7.28;2.63;;;;;;;15.10;71.78;101282.22;7393266;19;20074;-63
2023/08/09 05:46:54;;;;;;;8.82;2.75;;;;;;;15.09;71.92;101291.19;7390077;19;20491;-60
2023/08/09 05:49:22;;;;;;;6.35;2.50;;;;;;;15.01;71.75;101296.34;7392395;19;20029;-61
2023/08/09 05:51:49;;;;;;;8.13;2.92;;;;;;;15.03;71.84;101298.88;7392602;19;20078;-60
2023/08/09 05:54:16;;;;;;;9.20;2.42;;;;;;;15.02;72.01;101303.34;7392897;19;20015;-60
2023/08/09 05:56:44;;;;;;;8.35;2.83;;;;;;;15.11;71.67;101307.94;7390441;19;20029;-60
2023/08/09 05:59:11;;;;;;;6.78;2.53;;;;;;;15.15;71.68;101305.00;7392208;19;20134;-60
2023/08/09 06:01:38;;;;;;;6.80;2.80;;;;;;;15.10;71.60;101310.72;7389087;19;20025;-61
2023/08/09 06:04:06;;;;;;;7.50;2.88;;;;;;;15.12;71.75;101316.78;7392018;19;20024;-60
2023/08/09 06:06:33;;;;;;;7.70;2.72;;;;;;;15.12;71.79;101314.13;7390070;19;20019;-61
2023/08/09 06:09:00;;;;;;;5.13;2.30;;;;;;;15.17;71.44;101325.25;7392152;19;20027;-61
2023/08/09 06:11:28;;;;;;;6.85;2.60;;;;;;;15.21;71.63;101318.66;7392208;19;20018;-60
2023/08/09 06:13:55;;;;;;;6.43;2.65;;;;;;;15.21;71.62;101332.00;7391731;19;20021;-60
2023/08/09 06:16:22;;;;;;;7.68;2.35;;;;;;;15.25;71.51;101317.44;7389934;19;20031;-61
2023/08/09 06:18:50;;;;;;;7.20;1.92;;;;;;;15.29;71.12;101340.22;7390386;19;20018;-60
2023/08/09 06:21:17;;;;;;;7.47;2.33;;;;;;;15.35;71.39;101321.03;7390770;19;20018;-61
2023/08/09 06:23:45;;;;;;;7.85;2.60;;;;;;;15.39;70.86;101334.97;7391802;19;20022;-59
2023/08/09 06:26:12;;;;;;;8.85;2.40;;;;;;;15.49;70.45;101338.53;7390233;19;20014;-61
2023/08/09 06:28:40;;;;;;;6.75;2.15;;;;;;;15.49;70.51;101329.66;7390598;19;20035;-61
2023/08/09 06:31:08;;;;;;;5.97;2.03;;;;;;;15.55;70.70;101342.50;7391705;19;20086;-61
2023/08/09 06:33:41;;;;;;;6.28;1.90;;;;;;;15.57;70.57;101335.22;7390904;19;20018;-61
2023/08/09 06:36:09;;;;;;;7.50;2.10;;;;;;;15.62;70.17;101338.34;7389577;19;20035;-60
2023/08/09 06:38:37;;;;;;;6.57;2.10;;;;;;;15.65;70.02;101338.09;7390516;19;20086;-61
2023/08/09 06:41:04;;;;;;;7.43;2.00;;;;;;;15.68;69.81;101332.50;7389642;19;20090;-59
2023/08/09 06:43:31;;;;;;;5.65;1.67;;;;;;;15.72;69.42;101349.97;7390979;19;20018;-61
2023/08/09 06:46:02;;;;;;;6.55;1.88;;;;;;;15.80;69.46;101341.28;7389525;19;20365;-60
2023/08/09 06:48:31;;;;;;;4.95;1.52;;;;;;;15.90;69.29;101344.00;7391394;19;20023;-60
2023/08/09 06:51:00;;;;;;;7.10;1.55;;;;;;;15.93;68.85;101352.59;7391028;19;20379;-60
2023/08/09 06:53:28;;;;;;;9.63;1.65;;;;;;;15.92;68.84;101350.06;7391151;19;20039;-60
2023/08/09 06:55:55;;;;;;;5.53;1.70;;;;;;;15.96;68.76;101357.66;7389031;19;20022;-62
2023/08/09 06:58:22;;;;;;;8.00;1.83;;;;;;;15.96;68.59;101354.16;7390729;19;20018;-62
2023/08/09 07:00:51;;;;;;;5.18;1.77;;;;;;;16.01;68.69;101360.78;7389508;19;20007;-62
2023/08/09 07:03:18;;;;;;;6.70;1.83;;;;;;;16.05;68.46;101362.19;7390120;19;20024;-62
2023/08/09 07:05:45;;;;;;;7.63;1.60;;;;;;;16.07;68.47;101362.94;7388933;19;21073;-61
2023/08/09 07:08:13;;;;;;;6.18;1.50;;;;;;;16.09;68.30;101365.44;7391254;19;20031;-61
2023/08/09 07:10:40;;;;;;;5.35;1.60;;;;;;;16.18;67.86;101366.47;7390533;19;20029;-61
2023/08/09 07:13:08;;;;;;;5.82;2.08;;;;;;;16.25;67.52;101365.78;7389109;19;20018;-59
2023/08/09 07:15:35;;;;;;;5.90;1.42;;;;;;;16.27;67.57;101369.19;7389643;19;20014;-60
2023/08/09 07:18:03;;;;;;;7.95;1.85;;;;;;;16.30;67.67;101374.28;7393096;19;20018;-59
2023/08/09 07:20:30;;;;;;;7.38;1.70;;;;;;;16.42;67.10;101379.53;7389356;19;20021;-59
2023/08/09 07:22:57;;;;;;;6.22;1.40;;;;;;;16.51;66.70;101381.38;7389016;19;20053;-60
2023/08/09 07:25:25;;;;;;;4.43;1.20;;;;;;;16.48;66.69;101385.19;7387857;19;20078;-63
2023/08/09 07:27:52;;;;;;;6.78;1.70;;;;;;;16.50;66.55;101387.69;7390161;19;20026;-60
2023/08/09 07:30:20;;;;;;;6.72;1.95;;;;;;;16.50;66.48;101390.38;7388673;19;20018;-60
2023/08/09 07:32:47;;;;;;;6.68;1.60;;;;;;;16.56;66.04;101389.84;7388223;19;20082;-60
2023/08/09 07:35:16;;;;;;;6.40;1.70;;;;;;;16.63;65.70;101393.63;7390066;19;20051;-59
2023/08/09 07:37:45;;;;;;;4.97;1.52;;;;;;;16.68;65.65;101395.94;7389210;19;20492;-62
2023/08/09 07:40:13;;;;;;;8.57;1.90;;;;;;;16.75;65.44;101394.41;7389569;19;20051;-62
2023/08/09 07:42:42;;;;;;;4.72;1.30;;;;;;;16.89;64.95;101403.88;7390034;19;20014;-62
2023/08/09 07:45:10;;;;;;;9.65;1.77;;;;;;;17.12;64.76;101399.13;7389341;19;20018;-62
2023/08/09 07:47:40;;;;;;;6.13;1.38;;;;;;;17.30;64.02;101406.31;7386376;19;20037;-62
2023/08/09 07:50:08;;;;;;;6.60;1.40;;;;;;;17.36;63.90;101406.72;7389212;19;20021;-65
2023/08/09 07:52:35;;;;;;;6.50;1.40;;;;;;;17.30;63.39;101414.34;7395178;19;20022;-65
2023/08/09 07:55:04;;;;;;;9.02;1.48;;;;;;;17.29;63.07;101414.50;7396483;19;20023;-65
2023/08/09 07:57:33;;;;;;;6.78;1.10;;;;;;;17.28;62.93;101419.00;7393574;19;20014;-65
2023/08/09 08:00:17;;;;;;;8.52;1.27;;;;;;;17.37;63.16;101424.50;7395757;19;20519;-65
2023/08/09 08:02:46;;;;;;;6.68;1.45;;;;;;;17.33;63.01;101434.66;7396451;19;20022;-64
2023/08/09 08:05:15;;;;;;;5.50;1.10;;;;;;;17.35;62.94;101438.00;7396528;19;20043;-65
2023/08/09 08:07:45;;;;;;;7.97;1.60;;;;;;;17.24;63.04;101430.13;7394589;19;20023;-65
2023/08/09 08:10:17;;;;;;;4.95;1.30;;;;;;;17.15;63.59;101433.63;7395498;19;20015;-64
2023/08/09 08:12:48;;;;;;;7.80;1.55;;;;;;;17.09;63.73;101444.88;7395279;19;20025;-65
2023/08/09 08:15:16;;;;;;;6.25;1.35;;;;;;;17.09;63.30;101442.22;7395588;19;20029;-64
2023/08/09 08:17:46;;;;;;;5.78;1.17;;;;;;;17.11;62.49;101443.78;7398525;19;20028;-64
2023/08/09 08:20:17;;;;;;;6.95;1.60;;;;;;;17.07;62.74;101431.66;7395599;19;20086;-65
2023/08/09 08:22:46;;;;;;;4.57;1.10;;;;;;;17.13;62.35;101439.09;7395247;19;20022;-64
2023/08/09 08:25:15;;;;;;;5.38;1.20;;;;;;;17.14;62.77;101440.81;7395860;19;20035;-64
2023/08/09 08:27:45;;;;;;;8.02;1.30;;;;;;;17.17;62.53;101440.56;7394868;19;20015;-65
2023/08/09 08:30:14;;;;;;;5.20;1.30;;;;;;;17.25;62.77;101453.25;7395895;19;20018;-64
2023/08/09 08:32:41;;;;;;;5.22;1.40;;;;;;;17.32;61.98;101449.00;7393351;19;20018;-65
2023/08/09 08:35:13;;;;;;;5.13;1.35;;;;;;;17.40;62.01;101453.66;7395455;19;20018;-62
2023/08/09 08:37:41;;;;;;;4.32;1.30;;;;;;;17.59;61.29;101450.13;7392500;19;20480;-67
2023/08/09 08:40:17;;;;;;;5.22;1.45;;;;;;;17.74;59.93;101454.06;7395826;19;20014;-69
2023/08/09 08:42:47;;;;;;;7.47;1.35;;;;;;;17.65;60.56;101444.22;7395094;19;20040;-67
2023/08/09 08:45:15;;;;;;;5.57;1.30;;;;;;;17.61;61.11;101443.66;7394188;19;20030;-68
2023/08/09 08:47:47;;;;;;;4.93;1.05;;;;;;;17.75;60.38;101451.28;7394760;19;20029;-67
2023/08/09 08:50:16;;;;;;;4.88;0.95;;;;;;;17.86;59.14;101450.31;7395210;19;20025;-64
2023/08/09 08:52:46;;;;;;;7.47;1.33;;;;;;;17.81;59.45;101432.94;7395161;19;20043;-63
2023/08/09 08:55:15;;;;;;;8.52;1.20;;;;;;;17.98;58.63;101450.97;7393829;19;20048;-61
2023/08/09 08:57:45;;;;;;;7.13;1.20;;;;;;;18.08;58.42;101442.91;7394425;19;20056;-61
2023/08/09 09:00:17;;;;;;;7.72;1.30;;;;;;;18.05;58.00;101441.38;7394328;19;20047;-59
2023/08/09 09:02:47;;;;;;;5.80;1.48;;;;;;;18.14;57.76;101450.38;7393594;19;20010;-59
2023/08/09 09:05:16;;;;;;;5.03;1.10;;;;;;;18.22;57.48;101461.22;7393960;19;20049;-59
2023/08/09 09:07:45;;;;;;;4.30;1.20;;;;;;;18.24;57.14;101452.03;7394253;19;20018;-60
2023/08/09 09:10:13;;;;;;;4.93;1.10;;;;;;;18.17;57.63;101456.28;7393791;19;20019;-60
2023/08/09 09:12:41;;;;;;;4.88;1.20;;;;;;;18.11;58.38;101447.97;7393762;19;20071;-64
2023/08/09 09:15:09;;;;;;;6.15;1.60;;;;;;;18.08;57.88;101443.75;7393896;19;20026;-65
2023/08/09 09:17:38;;;;;;;5.75;1.20;;;;;;;18.17;58.23;101440.22;7393548;19;20494;-62
2023/08/09 09:20:10;;;;;;;7.28;1.60;;;;;;;18.22;57.84;101461.22;7393601;19;20108;-61
2023/08/09 09:22:38;;;;;;;4.47;1.27;;;;;;;18.19;58.06;101448.94;7392297;19;20051;-61
2023/08/09 09:25:10;;;;;;;3.53;1.20;;;;;;;18.37;57.32;101453.56;7393316;19;20043;-61
2023/08/09 09:27:40;;;;;;;4.53;1.40;;;;;;;18.58;56.87;101446.09;7391136;19;20041;-66
2023/08/09 09:30:12;;;;;;;4.20;1.00;;;;;;;18.64;56.06;101450.88;7391366;19;20382;-66
2023/08/09 09:32:51;;;;;;;7.82;1.25;;;;;;;18.88;54.53;101457.56;7393403;19;20047;-64
2023/08/09 09:35:22;;;;;;;8.15;1.40;;;;;;;18.85;54.63;101466.78;7393120;19;20014;-62
2023/08/09 09:37:54;;;;;;;8.15;1.45;;;;;;;18.75;53.81;101461.47;7393067;19;20025;-62
2023/08/09 09:40:22;;;;;;;5.90;1.13;;;;;;;18.97;52.34;101470.97;7393457;19;20014;-63
2023/08/09 09:42:55;;;;;;;7.18;1.00;;;;;;;19.11;52.02;101471.44;7391341;19;20014;-61
2023/08/09 09:45:24;;;;;;;6.32;1.67;;;;;;;19.23;52.23;101468.41;7392238;19;20018;-60
2023/08/09 09:47:57;;;;;;;4.15;0.93;;;;;;;19.34;51.76;101470.00;7391265;19;20019;-62
2023/08/09 09:50:28;;;;;;;6.10;1.20;;;;;;;19.23;52.19;101465.72;7391506;19;20051;-62
2023/08/09 09:52:55;;;;;;;3.90;1.25;;;;;;;19.25;52.67;101473.59;7391970;19;20078;-59
2023/08/09 09:55:28;;;;;;;5.63;1.40;;;;;;;19.15;53.31;101468.28;7390400;19;20487;-58
2023/08/09 09:57:58;;;;;;;4.57;1.27;;;;;;;19.10;53.90;101484.00;7392403;19;20086;-60
2023/08/09 10:00:31;;;;;;;7.13;1.20;;;;;;;18.95;53.31;101488.19;7392175;19;20517;-66
2023/08/09 10:03:01;;;;;;;4.97;1.10;;;;;;;19.06;51.79;101484.47;7390745;19;20029;-66
2023/08/09 10:05:40;;;;;;;4.22;1.10;;;;;;;19.48;50.00;101474.00;7391583;19;20015;-67
2023/08/09 10:08:10;;;;;;;4.57;1.42;;;;;;;19.44;51.16;101475.31;7392058;19;20022;-61
2023/08/09 10:10:43;;;;;;;5.22;1.38;;;;;;;19.37;51.93;101469.69;7391977;19;20031;-62
2023/08/09 10:13:17;;;;;;;5.55;1.05;;;;;;;19.23;52.56;101480.94;7392034;19;20022;-62
2023/08/09 10:16:05;;;;;;;;;;;;;;;18.96;52.90;101480.00;7390825;19;20014;-66
2023/08/09 10:18:40;;;;;;;7.95;1.35;;;;;;;18.93;53.14;101485.69;7396672;19;19923;-66
2023/08/09 10:21:09;;;;;;;3.67;0.85;;;;;;;18.93;53.50;101492.88;7390880;19;20023;-66
2023/08/09 10:23:36;;;;;;;4.45;1.00;;;;;;;18.91;53.06;101490.34;7391536;19;20018;-64
2023/08/09 10:26:04;;;;;;;5.50;1.10;;;;;;;19.01;52.42;101492.97;7390261;19;20029;-64
2023/08/09 10:28:42;;;;;;;8.32;1.75;;;;;;;19.23;51.48;101499.75;7391739;19;20035;-64
2023/08/09 10:31:09;;;;;;;9.23;1.75;;;;;;;18.99;51.72;101503.84;7391468;19;20010;-65
2023/08/09 10:33:41;;;;;;;8.13;1.40;;;;;;;18.92;51.91;101501.91;7391981;19;20018;-64
2023/08/09 10:36:13;;;;;;;7.07;1.60;;;;;;;18.99;51.45;101498.47;7390048;19;20097;-65
2023/08/09 10:38:40;;;;;;;3.83;1.35;;;;;;;19.15;50.84;101500.50;7390884;19;20026;-64
2023/08/09 10:41:14;;;;;;;4.82;1.15;;;;;;;19.43;49.29;101498.63;7390759;19;20031;-62
2023/08/09 10:43:42;;;;;;;5.88;1.25;;;;;;;19.47;48.67;101501.88;7389295;19;20375;-65
2023/08/09 10:46:24;;;;;;;6.85;1.10;;;;;;;19.37;48.62;101499.25;7387522;19;20023;-61
2023/08/09 10:48:53;;;;;;;5.70;1.00;;;;;;;19.26;49.54;101506.66;7391261;19;20035;-63
2023/08/09 10:51:23;;;;;;;3.55;0.90;;;;;;;19.30;49.19;101505.38;7390615;19;20491;-61
2023/08/09 10:54:06;;;;;;;3.63;1.05;;;;;;;19.42;48.40;101517.56;7390800;19;20022;-63
2023/08/09 10:56:46;;;;;;;7.23;1.47;;;;;;;19.34;48.97;101512.97;7389258;19;20022;-66
2023/08/09 10:59:24;;;;;;;6.65;1.25;;;;;;;19.36;49.68;101520.88;7390600;19;20259;-61
2023/08/09 11:01:53;;;;;;;3.75;1.23;;;;;;;19.48;48.96;101515.13;7389707;19;20027;-62
2023/08/09 11:04:20;;;;;;;3.30;1.08;;;;;;;19.70;48.06;101511.19;7390605;19;20019;-62
2023/08/09 11:06:49;;;;;;;4.75;1.00;;;;;;;19.62;47.40;101518.34;7387044;19;20025;-59
2023/08/09 11:09:21;;;;;;;3.58;1.00;;;;;;;19.49;47.70;101526.72;7390334;19;20022;-59
2023/08/09 11:11:50;;;;;;;2.67;0.90;;;;;;;19.22;48.88;101522.22;7390514;19;20022;-61
2023/08/09 11:14:21;;;;;;;3.70;1.00;;;;;;;19.28;49.63;101531.56;7390492;19;20026;-61
2023/08/09 11:16:49;;;;;;;4.75;1.23;;;;;;;19.40;48.80;101533.84;7389427;19;20047;-59
2023/08/09 11:19:21;;;;;;;3.28;0.93;;;;;;;19.30;47.92;101525.00;7390245;19;20018;-60
2023/08/09 11:22:02;;;;;;;3.30;0.90;;;;;;;19.32;48.28;101538.31;7389634;19;20022;-63
2023/08/09 11:24:30;;;;;;;2.85;0.82;;;;;;;19.34;48.84;101525.56;7389917;19;20023;-60
2023/08/09 11:26:59;;;;;;;5.25;1.10;;;;;;;19.48;48.86;101541.16;7394223;19;20018;-60
2023/08/09 11:29:28;;;;;;;4.53;1.27;;;;;;;19.56;48.83;101540.41;7396048;19;20394;-59
2023/08/09 11:31:57;;;;;;;6.75;1.08;;;;;;;19.74;48.44;101532.38;7397892;19;20022;-60
2023/08/09 11:34:26;;;;;;;4.28;1.30;;;;;;;20.02;47.51;101536.66;7397821;19;20023;-60